sensor_id;sensor_type;location;lat;lon;timestamp;P1;durP1;ratioP1;P2;durP2;ratioP2
70342;SDS011;57767;42.068;24.752;2023-10-13T00:00:30;5.40;;;3.80;;
70342;SDS011;57767;42.068;24.752;2023-10-13T00:01:36;6.80;;;3.35;;
70342;SDS011;57767;42.068;24.752;2023-10-13T00:02:39;5.00;;;3.47;;
70342;SDS011;57767;42.068;24.752;2023-10-13T00:03:44;8.95;;;3.70;;
70342;SDS011;57767;42.068;24.752;2023-10-13T00:04:46;5.70;;;4.13;;
70342;SDS011;57767;42.068;24.752;2023-10-13T00:05:48;4.28;;;3.33;;
70342;SDS011;57767;42.068;24.752;2023-10-13T00:06:57;8.00;;;3.60;;
70342;SDS011;57767;42.068;24.752;2023-10-13T00:07:59;4.50;;;3.28;;
70342;SDS011;57767;42.068;24.752;2023-10-13T00:09:04;7.95;;;3.53;;
70342;SDS011;57767;42.068;24.752;2023-10-13T00:10:06;8.30;;;3.75;;
70342;SDS011;57767;42.068;24.752;2023-10-13T00:11:11;7.00;;;3.53;;
70342;SDS011;57767;42.068;24.752;2023-10-13T00:12:16;8.15;;;3.78;;
70342;SDS011;57767;42.068;24.752;2023-10-13T00:13:21;9.15;;;3.90;;
70342;SDS011;57767;42.068;24.752;2023-10-13T00:14:23;5.00;;;3.38;;
70342;SDS011;57767;42.068;24.752;2023-10-13T00:15:33;7.28;;;3.60;;
70342;SDS011;57767;42.068;24.752;2023-10-13T00:16:40;6.20;;;3.95;;
70342;SDS011;57767;42.068;24.752;2023-10-13T00:17:42;5.18;;;3.38;;
70342;SDS011;57767;42.068;24.752;2023-10-13T00:18:44;6.30;;;3.40;;
70342;SDS011;57767;42.068;24.752;2023-10-13T00:19:46;4.95;;;3.53;;
70342;SDS011;57767;42.068;24.752;2023-10-13T00:20:54;6.72;;;3.80;;
70342;SDS011;57767;42.068;24.752;2023-10-13T00:21:58;5.10;;;3.17;;
70342;SDS011;57767;42.068;24.752;2023-10-13T00:23:10;5.30;;;3.20;;
70342;SDS011;57767;42.068;24.752;2023-10-13T00:24:13;6.00;;;3.25;;
70342;SDS011;57767;42.068;24.752;2023-10-13T00:25:15;3.92;;;3.45;;
70342;SDS011;57767;42.068;24.752;2023-10-13T00:26:28;6.45;;;3.70;;
70342;SDS011;57767;42.068;24.752;2023-10-13T00:27:31;5.47;;;3.30;;
70342;SDS011;57767;42.068;24.752;2023-10-13T00:28:34;9.23;;;3.60;;
70342;SDS011;57767;42.068;24.752;2023-10-13T00:29:37;5.50;;;3.35;;
70342;SDS011;57767;42.068;24.752;2023-10-13T00:30:39;4.57;;;3.47;;
70342;SDS011;57767;42.068;24.752;2023-10-13T00:31:40;7.75;;;3.63;;
70342;SDS011;57767;42.068;24.752;2023-10-13T00:32:45;5.80;;;3.17;;
70342;SDS011;57767;42.068;24.752;2023-10-13T00:33:54;7.03;;;3.58;;
70342;SDS011;57767;42.068;24.752;2023-10-13T00:35:02;5.65;;;3.38;;
70342;SDS011;57767;42.068;24.752;2023-10-13T00:36:06;5.57;;;3.63;;
70342;SDS011;57767;42.068;24.752;2023-10-13T00:37:09;6.68;;;3.58;;
70342;SDS011;57767;42.068;24.752;2023-10-13T00:38:20;5.32;;;3.88;;
70342;SDS011;57767;42.068;24.752;2023-10-13T00:39:24;5.95;;;3.33;;
70342;SDS011;57767;42.068;24.752;2023-10-13T00:40:25;9.63;;;3.90;;
70342;SDS011;57767;42.068;24.752;2023-10-13T00:41:33;7.10;;;3.92;;
70342;SDS011;57767;42.068;24.752;2023-10-13T00:42:54;5.25;;;3.80;;
70342;SDS011;57767;42.068;24.752;2023-10-13T00:43:55;7.18;;;3.30;;
70342;SDS011;57767;42.068;24.752;2023-10-13T00:45:06;6.32;;;3.20;;
70342;SDS011;57767;42.068;24.752;2023-10-13T00:46:09;4.65;;;3.28;;
70342;SDS011;57767;42.068;24.752;2023-10-13T00:47:18;4.47;;;3.60;;
70342;SDS011;57767;42.068;24.752;2023-10-13T00:48:39;4.55;;;3.30;;
70342;SDS011;57767;42.068;24.752;2023-10-13T00:49:44;5.45;;;3.38;;
70342;SDS011;57767;42.068;24.752;2023-10-13T00:50:49;3.95;;;3.13;;
70342;SDS011;57767;42.068;24.752;2023-10-13T00:51:51;6.00;;;3.30;;
70342;SDS011;57767;42.068;24.752;2023-10-13T00:52:52;6.15;;;3.53;;
70342;SDS011;57767;42.068;24.752;2023-10-13T00:53:56;3.65;;;3.20;;
70342;SDS011;57767;42.068;24.752;2023-10-13T00:54:58;4.38;;;3.10;;
70342;SDS011;57767;42.068;24.752;2023-10-13T00:56:01;6.15;;;3.30;;
70342;SDS011;57767;42.068;24.752;2023-10-13T00:57:08;4.53;;;3.33;;
70342;SDS011;57767;42.068;24.752;2023-10-13T00:58:27;5.68;;;3.10;;
70342;SDS011;57767;42.068;24.752;2023-10-13T00:59:30;4.47;;;3.00;;
70342;SDS011;57767;42.068;24.752;2023-10-13T01:00:43;4.32;;;3.22;;
70342;SDS011;57767;42.068;24.752;2023-10-13T01:01:57;7.93;;;3.50;;
70342;SDS011;57767;42.068;24.752;2023-10-13T01:02:59;6.28;;;3.47;;
70342;SDS011;57767;42.068;24.752;2023-10-13T01:04:09;4.65;;;3.30;;
70342;SDS011;57767;42.068;24.752;2023-10-13T01:05:14;8.70;;;3.60;;
70342;SDS011;57767;42.068;24.752;2023-10-13T01:06:22;4.57;;;2.92;;
70342;SDS011;57767;42.068;24.752;2023-10-13T01:07:27;6.60;;;3.45;;
70342;SDS011;57767;42.068;24.752;2023-10-13T01:08:32;6.68;;;3.13;;
70342;SDS011;57767;42.068;24.752;2023-10-13T01:09:40;7.75;;;3.47;;
70342;SDS011;57767;42.068;24.752;2023-10-13T01:10:43;6.35;;;3.28;;
70342;SDS011;57767;42.068;24.752;2023-10-13T01:11:46;7.53;;;3.60;;
70342;SDS011;57767;42.068;24.752;2023-10-13T01:12:49;6.55;;;3.55;;
70342;SDS011;57767;42.068;24.752;2023-10-13T01:13:55;8.18;;;3.63;;
70342;SDS011;57767;42.068;24.752;2023-10-13T01:14:58;5.18;;;3.13;;
70342;SDS011;57767;42.068;24.752;2023-10-13T01:16:00;4.13;;;3.10;;
70342;SDS011;57767;42.068;24.752;2023-10-13T01:17:03;6.97;;;3.55;;
70342;SDS011;57767;42.068;24.752;2023-10-13T01:18:06;5.35;;;2.90;;
70342;SDS011;57767;42.068;24.752;2023-10-13T01:19:13;6.90;;;3.17;;
70342;SDS011;57767;42.068;24.752;2023-10-13T01:20:18;6.50;;;3.30;;
70342;SDS011;57767;42.068;24.752;2023-10-13T01:21:26;4.22;;;3.30;;
70342;SDS011;57767;42.068;24.752;2023-10-13T01:22:29;7.40;;;3.80;;
70342;SDS011;57767;42.068;24.752;2023-10-13T01:23:30;7.40;;;3.55;;
70342;SDS011;57767;42.068;24.752;2023-10-13T01:24:39;7.22;;;3.50;;
70342;SDS011;57767;42.068;24.752;2023-10-13T01:25:41;6.32;;;3.60;;
70342;SDS011;57767;42.068;24.752;2023-10-13T01:26:43;5.85;;;3.78;;
70342;SDS011;57767;42.068;24.752;2023-10-13T01:27:44;5.97;;;3.03;;
70342;SDS011;57767;42.068;24.752;2023-10-13T01:28:50;9.50;;;3.70;;
70342;SDS011;57767;42.068;24.752;2023-10-13T01:29:53;6.10;;;3.38;;
70342;SDS011;57767;42.068;24.752;2023-10-13T01:31:00;5.70;;;3.40;;
70342;SDS011;57767;42.068;24.752;2023-10-13T01:32:03;6.95;;;3.15;;
70342;SDS011;57767;42.068;24.752;2023-10-13T01:33:05;6.50;;;3.60;;
70342;SDS011;57767;42.068;24.752;2023-10-13T01:34:07;7.75;;;3.47;;
70342;SDS011;57767;42.068;24.752;2023-10-13T01:35:09;4.88;;;3.47;;
70342;SDS011;57767;42.068;24.752;2023-10-13T01:36:11;6.07;;;3.55;;
70342;SDS011;57767;42.068;24.752;2023-10-13T01:37:13;8.40;;;3.40;;
70342;SDS011;57767;42.068;24.752;2023-10-13T01:38:17;5.45;;;3.63;;
70342;SDS011;57767;42.068;24.752;2023-10-13T01:39:19;6.18;;;3.25;;
70342;SDS011;57767;42.068;24.752;2023-10-13T01:40:30;6.07;;;3.35;;
70342;SDS011;57767;42.068;24.752;2023-10-13T01:41:35;7.40;;;3.58;;
70342;SDS011;57767;42.068;24.752;2023-10-13T01:42:40;6.97;;;3.58;;
70342;SDS011;57767;42.068;24.752;2023-10-13T01:43:42;6.40;;;3.60;;
70342;SDS011;57767;42.068;24.752;2023-10-13T01:44:43;7.10;;;3.75;;
70342;SDS011;57767;42.068;24.752;2023-10-13T01:45:45;4.72;;;3.25;;
70342;SDS011;57767;42.068;24.752;2023-10-13T01:46:51;4.65;;;3.40;;
70342;SDS011;57767;42.068;24.752;2023-10-13T01:47:53;4.45;;;3.50;;
70342;SDS011;57767;42.068;24.752;2023-10-13T01:48:54;7.05;;;3.80;;
70342;SDS011;57767;42.068;24.752;2023-10-13T01:49:58;4.15;;;2.95;;
70342;SDS011;57767;42.068;24.752;2023-10-13T01:51:08;5.22;;;3.35;;
70342;SDS011;57767;42.068;24.752;2023-10-13T01:52:12;4.85;;;3.47;;
70342;SDS011;57767;42.068;24.752;2023-10-13T01:53:18;5.85;;;3.30;;
70342;SDS011;57767;42.068;24.752;2023-10-13T01:54:20;5.68;;;3.60;;
70342;SDS011;57767;42.068;24.752;2023-10-13T01:55:22;4.40;;;3.25;;
70342;SDS011;57767;42.068;24.752;2023-10-13T01:56:24;5.50;;;3.83;;
70342;SDS011;57767;42.068;24.752;2023-10-13T01:57:27;4.10;;;3.00;;
70342;SDS011;57767;42.068;24.752;2023-10-13T01:58:29;3.90;;;3.28;;
70342;SDS011;57767;42.068;24.752;2023-10-13T01:59:31;3.80;;;3.33;;
70342;SDS011;57767;42.068;24.752;2023-10-13T02:00:32;4.43;;;3.20;;
70342;SDS011;57767;42.068;24.752;2023-10-13T02:01:42;4.32;;;3.45;;
70342;SDS011;57767;42.068;24.752;2023-10-13T02:02:44;7.85;;;3.40;;
70342;SDS011;57767;42.068;24.752;2023-10-13T02:03:52;6.43;;;3.53;;
70342;SDS011;57767;42.068;24.752;2023-10-13T02:05:04;4.03;;;3.60;;
70342;SDS011;57767;42.068;24.752;2023-10-13T02:06:06;4.60;;;3.50;;
70342;SDS011;57767;42.068;24.752;2023-10-13T02:07:11;5.88;;;3.92;;
70342;SDS011;57767;42.068;24.752;2023-10-13T02:08:17;6.07;;;3.67;;
70342;SDS011;57767;42.068;24.752;2023-10-13T02:09:24;4.38;;;3.40;;
70342;SDS011;57767;42.068;24.752;2023-10-13T02:10:28;5.13;;;3.40;;
70342;SDS011;57767;42.068;24.752;2023-10-13T02:11:31;6.68;;;3.90;;
70342;SDS011;57767;42.068;24.752;2023-10-13T02:12:33;4.68;;;3.63;;
70342;SDS011;57767;42.068;24.752;2023-10-13T02:13:44;3.78;;;3.17;;
70342;SDS011;57767;42.068;24.752;2023-10-13T02:14:50;4.97;;;3.88;;
70342;SDS011;57767;42.068;24.752;2023-10-13T02:15:55;4.63;;;3.20;;
70342;SDS011;57767;42.068;24.752;2023-10-13T02:16:58;4.82;;;3.25;;
70342;SDS011;57767;42.068;24.752;2023-10-13T02:18:18;4.90;;;3.47;;
70342;SDS011;57767;42.068;24.752;2023-10-13T02:19:35;5.10;;;3.63;;
70342;SDS011;57767;42.068;24.752;2023-10-13T02:20:36;4.57;;;3.65;;
70342;SDS011;57767;42.068;24.752;2023-10-13T02:21:45;4.05;;;3.58;;
70342;SDS011;57767;42.068;24.752;2023-10-13T02:22:59;5.43;;;3.50;;
70342;SDS011;57767;42.068;24.752;2023-10-13T02:24:01;3.80;;;3.38;;
70342;SDS011;57767;42.068;24.752;2023-10-13T02:25:05;6.75;;;3.75;;
70342;SDS011;57767;42.068;24.752;2023-10-13T02:26:07;6.32;;;3.60;;
70342;SDS011;57767;42.068;24.752;2023-10-13T02:27:13;6.18;;;4.03;;
70342;SDS011;57767;42.068;24.752;2023-10-13T02:28:15;4.10;;;3.40;;
70342;SDS011;57767;42.068;24.752;2023-10-13T02:29:22;7.32;;;3.60;;
70342;SDS011;57767;42.068;24.752;2023-10-13T02:30:24;4.43;;;3.50;;
70342;SDS011;57767;42.068;24.752;2023-10-13T02:31:27;6.03;;;3.58;;
70342;SDS011;57767;42.068;24.752;2023-10-13T02:32:29;7.47;;;4.20;;
70342;SDS011;57767;42.068;24.752;2023-10-13T02:33:32;5.63;;;3.72;;
70342;SDS011;57767;42.068;24.752;2023-10-13T02:34:34;6.07;;;3.70;;
70342;SDS011;57767;42.068;24.752;2023-10-13T02:35:36;9.70;;;3.50;;
70342;SDS011;57767;42.068;24.752;2023-10-13T02:36:42;6.00;;;3.80;;
70342;SDS011;57767;42.068;24.752;2023-10-13T02:37:53;5.05;;;3.63;;
70342;SDS011;57767;42.068;24.752;2023-10-13T02:38:57;5.20;;;3.67;;
70342;SDS011;57767;42.068;24.752;2023-10-13T02:39:59;6.80;;;3.90;;
70342;SDS011;57767;42.068;24.752;2023-10-13T02:41:01;7.10;;;4.03;;
70342;SDS011;57767;42.068;24.752;2023-10-13T02:42:09;5.63;;;4.25;;
70342;SDS011;57767;42.068;24.752;2023-10-13T02:43:24;5.22;;;4.00;;
70342;SDS011;57767;42.068;24.752;2023-10-13T02:44:26;5.32;;;4.10;;
70342;SDS011;57767;42.068;24.752;2023-10-13T02:45:34;6.70;;;3.80;;
70342;SDS011;57767;42.068;24.752;2023-10-13T02:46:39;7.35;;;4.00;;
70342;SDS011;57767;42.068;24.752;2023-10-13T02:47:43;7.22;;;4.28;;
70342;SDS011;57767;42.068;24.752;2023-10-13T02:48:45;8.93;;;4.10;;
70342;SDS011;57767;42.068;24.752;2023-10-13T02:49:54;6.22;;;4.00;;
70342;SDS011;57767;42.068;24.752;2023-10-13T02:50:59;10.05;;;4.15;;
70342;SDS011;57767;42.068;24.752;2023-10-13T02:52:07;7.05;;;3.80;;
70342;SDS011;57767;42.068;24.752;2023-10-13T02:53:10;7.85;;;4.32;;
70342;SDS011;57767;42.068;24.752;2023-10-13T02:54:14;6.43;;;3.97;;
70342;SDS011;57767;42.068;24.752;2023-10-13T02:55:19;6.95;;;3.97;;
70342;SDS011;57767;42.068;24.752;2023-10-13T02:56:27;7.80;;;3.80;;
70342;SDS011;57767;42.068;24.752;2023-10-13T02:57:28;6.63;;;4.00;;
70342;SDS011;57767;42.068;24.752;2023-10-13T02:58:35;5.13;;;3.92;;
70342;SDS011;57767;42.068;24.752;2023-10-13T02:59:40;7.00;;;3.70;;
70342;SDS011;57767;42.068;24.752;2023-10-13T03:00:42;6.05;;;3.95;;
70342;SDS011;57767;42.068;24.752;2023-10-13T03:01:43;8.35;;;4.03;;
70342;SDS011;57767;42.068;24.752;2023-10-13T03:02:45;10.45;;;3.88;;
70342;SDS011;57767;42.068;24.752;2023-10-13T03:04:00;7.28;;;4.15;;
70342;SDS011;57767;42.068;24.752;2023-10-13T03:05:03;6.32;;;4.13;;
70342;SDS011;57767;42.068;24.752;2023-10-13T03:06:11;7.57;;;4.15;;
70342;SDS011;57767;42.068;24.752;2023-10-13T03:07:13;5.47;;;4.20;;
70342;SDS011;57767;42.068;24.752;2023-10-13T03:08:24;6.75;;;4.25;;
70342;SDS011;57767;42.068;24.752;2023-10-13T03:09:28;4.10;;;3.60;;
70342;SDS011;57767;42.068;24.752;2023-10-13T03:10:30;6.47;;;4.35;;
70342;SDS011;57767;42.068;24.752;2023-10-13T03:11:31;7.28;;;4.60;;
70342;SDS011;57767;42.068;24.752;2023-10-13T03:12:34;7.38;;;3.97;;
70342;SDS011;57767;42.068;24.752;2023-10-13T03:13:37;5.60;;;4.13;;
70342;SDS011;57767;42.068;24.752;2023-10-13T03:14:39;5.15;;;3.90;;
70342;SDS011;57767;42.068;24.752;2023-10-13T03:15:40;4.85;;;4.32;;
70342;SDS011;57767;42.068;24.752;2023-10-13T03:16:42;5.45;;;3.85;;
70342;SDS011;57767;42.068;24.752;2023-10-13T03:17:45;6.88;;;4.32;;
70342;SDS011;57767;42.068;24.752;2023-10-13T03:18:48;5.95;;;4.05;;
70342;SDS011;57767;42.068;24.752;2023-10-13T03:19:57;9.13;;;3.92;;
70342;SDS011;57767;42.068;24.752;2023-10-13T03:20:59;5.85;;;3.90;;
70342;SDS011;57767;42.068;24.752;2023-10-13T03:22:04;8.00;;;4.22;;
70342;SDS011;57767;42.068;24.752;2023-10-13T03:23:14;8.15;;;4.38;;
70342;SDS011;57767;42.068;24.752;2023-10-13T03:24:15;5.97;;;3.92;;
70342;SDS011;57767;42.068;24.752;2023-10-13T03:25:23;6.82;;;3.83;;
70342;SDS011;57767;42.068;24.752;2023-10-13T03:26:30;7.00;;;4.38;;
70342;SDS011;57767;42.068;24.752;2023-10-13T03:27:38;6.93;;;4.28;;
70342;SDS011;57767;42.068;24.752;2023-10-13T03:28:43;6.05;;;4.30;;
70342;SDS011;57767;42.068;24.752;2023-10-13T03:29:48;7.97;;;4.35;;
70342;SDS011;57767;42.068;24.752;2023-10-13T03:30:56;10.45;;;4.70;;
70342;SDS011;57767;42.068;24.752;2023-10-13T03:32:03;10.55;;;4.40;;
70342;SDS011;57767;42.068;24.752;2023-10-13T03:33:12;6.10;;;4.55;;
70342;SDS011;57767;42.068;24.752;2023-10-13T03:34:15;8.65;;;4.45;;
70342;SDS011;57767;42.068;24.752;2023-10-13T03:35:20;6.78;;;4.90;;
70342;SDS011;57767;42.068;24.752;2023-10-13T03:36:26;7.32;;;4.80;;
70342;SDS011;57767;42.068;24.752;2023-10-13T03:37:57;7.47;;;4.38;;
70342;SDS011;57767;42.068;24.752;2023-10-13T03:38:58;8.57;;;4.63;;
70342;SDS011;57767;42.068;24.752;2023-10-13T03:40:00;7.20;;;4.53;;
70342;SDS011;57767;42.068;24.752;2023-10-13T03:41:06;5.68;;;4.53;;
70342;SDS011;57767;42.068;24.752;2023-10-13T03:42:09;8.73;;;4.93;;
70342;SDS011;57767;42.068;24.752;2023-10-13T03:43:19;7.20;;;4.30;;
70342;SDS011;57767;42.068;24.752;2023-10-13T03:44:23;6.43;;;5.03;;
70342;SDS011;57767;42.068;24.752;2023-10-13T03:45:34;5.82;;;4.63;;
70342;SDS011;57767;42.068;24.752;2023-10-13T03:46:44;6.22;;;4.60;;
70342;SDS011;57767;42.068;24.752;2023-10-13T03:47:49;8.32;;;4.28;;
70342;SDS011;57767;42.068;24.752;2023-10-13T03:48:53;7.65;;;4.80;;
70342;SDS011;57767;42.068;24.752;2023-10-13T03:50:03;4.40;;;3.75;;
70342;SDS011;57767;42.068;24.752;2023-10-13T03:51:16;6.30;;;4.93;;
70342;SDS011;57767;42.068;24.752;2023-10-13T03:52:18;8.13;;;4.70;;
70342;SDS011;57767;42.068;24.752;2023-10-13T03:53:24;6.57;;;4.40;;
70342;SDS011;57767;42.068;24.752;2023-10-13T03:54:27;11.13;;;5.32;;
70342;SDS011;57767;42.068;24.752;2023-10-13T03:55:31;11.43;;;5.45;;
70342;SDS011;57767;42.068;24.752;2023-10-13T03:56:36;8.52;;;5.80;;
70342;SDS011;57767;42.068;24.752;2023-10-13T03:57:42;8.13;;;5.55;;
70342;SDS011;57767;42.068;24.752;2023-10-13T03:58:43;8.68;;;5.22;;
70342;SDS011;57767;42.068;24.752;2023-10-13T03:59:48;8.63;;;5.47;;
70342;SDS011;57767;42.068;24.752;2023-10-13T04:00:50;8.85;;;4.97;;
70342;SDS011;57767;42.068;24.752;2023-10-13T04:01:51;9.20;;;5.25;;
70342;SDS011;57767;42.068;24.752;2023-10-13T04:02:53;11.80;;;5.00;;
70342;SDS011;57767;42.068;24.752;2023-10-13T04:04:04;9.82;;;4.80;;
70342;SDS011;57767;42.068;24.752;2023-10-13T04:05:13;10.00;;;5.20;;
70342;SDS011;57767;42.068;24.752;2023-10-13T04:06:35;8.95;;;5.35;;
70342;SDS011;57767;42.068;24.752;2023-10-13T04:07:49;11.60;;;5.93;;
70342;SDS011;57767;42.068;24.752;2023-10-13T04:09:09;13.35;;;5.18;;
70342;SDS011;57767;42.068;24.752;2023-10-13T04:10:30;13.35;;;5.30;;
70342;SDS011;57767;42.068;24.752;2023-10-13T04:11:46;5.57;;;4.72;;
70342;SDS011;57767;42.068;24.752;2023-10-13T04:13:10;12.20;;;4.85;;
70342;SDS011;57767;42.068;24.752;2023-10-13T04:15:57;7.32;;;4.93;;
70342;SDS011;57767;42.068;24.752;2023-10-13T04:17:17;14.65;;;4.97;;
70342;SDS011;57767;42.068;24.752;2023-10-13T04:18:27;11.68;;;5.13;;
70342;SDS011;57767;42.068;24.752;2023-10-13T04:19:48;10.00;;;4.90;;
70342;SDS011;57767;42.068;24.752;2023-10-13T04:21:09;12.00;;;5.03;;
70342;SDS011;57767;42.068;24.752;2023-10-13T04:22:29;8.35;;;4.72;;
70342;SDS011;57767;42.068;24.752;2023-10-13T04:23:51;8.52;;;4.60;;
70342;SDS011;57767;42.068;24.752;2023-10-13T04:25:20;11.80;;;5.13;;
70342;SDS011;57767;42.068;24.752;2023-10-13T04:26:45;11.23;;;4.85;;
70342;SDS011;57767;42.068;24.752;2023-10-13T04:28:08;8.20;;;4.88;;
70342;SDS011;57767;42.068;24.752;2023-10-13T04:29:17;11.30;;;4.97;;
70342;SDS011;57767;42.068;24.752;2023-10-13T04:31:59;10.27;;;4.90;;
70342;SDS011;57767;42.068;24.752;2023-10-13T04:33:02;10.52;;;5.07;;
70342;SDS011;57767;42.068;24.752;2023-10-13T04:34:37;11.35;;;5.28;;
70342;SDS011;57767;42.068;24.752;2023-10-13T04:35:41;8.10;;;4.63;;
70342;SDS011;57767;42.068;24.752;2023-10-13T04:36:49;7.60;;;5.00;;
70342;SDS011;57767;42.068;24.752;2023-10-13T04:37:57;14.48;;;5.43;;
70342;SDS011;57767;42.068;24.752;2023-10-13T04:39:19;11.73;;;4.85;;
70342;SDS011;57767;42.068;24.752;2023-10-13T04:40:30;12.75;;;5.22;;
70342;SDS011;57767;42.068;24.752;2023-10-13T04:41:37;10.02;;;5.90;;
70342;SDS011;57767;42.068;24.752;2023-10-13T04:42:46;9.95;;;4.97;;
70342;SDS011;57767;42.068;24.752;2023-10-13T04:43:51;10.23;;;4.93;;
70342;SDS011;57767;42.068;24.752;2023-10-13T04:45:13;8.38;;;5.10;;
70342;SDS011;57767;42.068;24.752;2023-10-13T04:46:33;11.50;;;5.22;;
70342;SDS011;57767;42.068;24.752;2023-10-13T04:47:55;9.73;;;5.38;;
70342;SDS011;57767;42.068;24.752;2023-10-13T04:49:20;9.63;;;5.35;;
70342;SDS011;57767;42.068;24.752;2023-10-13T04:50:30;17.35;;;5.80;;
70342;SDS011;57767;42.068;24.752;2023-10-13T04:51:42;13.95;;;5.55;;
70342;SDS011;57767;42.068;24.752;2023-10-13T04:53:02;13.85;;;5.72;;
70342;SDS011;57767;42.068;24.752;2023-10-13T04:54:14;9.77;;;5.43;;
70342;SDS011;57767;42.068;24.752;2023-10-13T04:55:27;8.45;;;5.15;;
70342;SDS011;57767;42.068;24.752;2023-10-13T04:56:47;10.00;;;5.35;;
70342;SDS011;57767;42.068;24.752;2023-10-13T04:58:14;8.13;;;5.10;;
70342;SDS011;57767;42.068;24.752;2023-10-13T04:59:36;11.50;;;5.80;;
70342;SDS011;57767;42.068;24.752;2023-10-13T05:00:39;6.13;;;4.85;;
70342;SDS011;57767;42.068;24.752;2023-10-13T05:01:59;14.18;;;5.20;;
70342;SDS011;57767;42.068;24.752;2023-10-13T05:03:19;9.90;;;5.15;;
70342;SDS011;57767;42.068;24.752;2023-10-13T05:04:40;19.40;;;5.47;;
70342;SDS011;57767;42.068;24.752;2023-10-13T05:06:01;16.20;;;6.20;;
70342;SDS011;57767;42.068;24.752;2023-10-13T05:07:14;9.77;;;5.38;;
70342;SDS011;57767;42.068;24.752;2023-10-13T05:08:34;19.73;;;5.47;;
70342;SDS011;57767;42.068;24.752;2023-10-13T05:09:55;11.02;;;6.20;;
70342;SDS011;57767;42.068;24.752;2023-10-13T05:11:15;15.13;;;5.68;;
70342;SDS011;57767;42.068;24.752;2023-10-13T05:12:35;12.15;;;5.85;;
70342;SDS011;57767;42.068;24.752;2023-10-13T05:13:55;12.52;;;6.32;;
70342;SDS011;57767;42.068;24.752;2023-10-13T05:15:15;16.42;;;5.15;;
70342;SDS011;57767;42.068;24.752;2023-10-13T05:16:35;14.00;;;5.88;;
70342;SDS011;57767;42.068;24.752;2023-10-13T05:17:55;13.38;;;6.03;;
70342;SDS011;57767;42.068;24.752;2023-10-13T05:19:15;9.80;;;6.68;;
70342;SDS011;57767;42.068;24.752;2023-10-13T05:20:35;14.07;;;6.32;;
70342;SDS011;57767;42.068;24.752;2023-10-13T05:21:55;11.63;;;5.70;;
70342;SDS011;57767;42.068;24.752;2023-10-13T05:23:15;11.52;;;5.70;;
70342;SDS011;57767;42.068;24.752;2023-10-13T05:24:36;13.75;;;5.93;;
70342;SDS011;57767;42.068;24.752;2023-10-13T05:25:56;11.45;;;6.45;;
70342;SDS011;57767;42.068;24.752;2023-10-13T05:27:19;12.93;;;6.00;;
70342;SDS011;57767;42.068;24.752;2023-10-13T05:28:39;10.13;;;5.70;;
70342;SDS011;57767;42.068;24.752;2023-10-13T05:29:59;10.25;;;4.88;;
70342;SDS011;57767;42.068;24.752;2023-10-13T05:31:27;9.50;;;5.47;;
70342;SDS011;57767;42.068;24.752;2023-10-13T05:32:47;12.73;;;5.63;;
70342;SDS011;57767;42.068;24.752;2023-10-13T05:34:07;15.13;;;6.15;;
70342;SDS011;57767;42.068;24.752;2023-10-13T05:35:27;12.20;;;4.93;;
70342;SDS011;57767;42.068;24.752;2023-10-13T05:36:47;17.15;;;6.07;;
70342;SDS011;57767;42.068;24.752;2023-10-13T05:38:07;9.75;;;5.07;;
70342;SDS011;57767;42.068;24.752;2023-10-13T05:39:27;9.13;;;5.47;;
70342;SDS011;57767;42.068;24.752;2023-10-13T05:40:59;10.75;;;5.60;;
70342;SDS011;57767;42.068;24.752;2023-10-13T05:42:25;16.27;;;5.60;;
70342;SDS011;57767;42.068;24.752;2023-10-13T05:43:46;16.23;;;6.43;;
70342;SDS011;57767;42.068;24.752;2023-10-13T05:45:07;15.52;;;6.35;;
70342;SDS011;57767;42.068;24.752;2023-10-13T05:46:29;29.15;;;6.97;;
70342;SDS011;57767;42.068;24.752;2023-10-13T05:48:42;25.42;;;7.00;;
70342;SDS011;57767;42.068;24.752;2023-10-13T05:49:59;20.33;;;7.00;;
70342;SDS011;57767;42.068;24.752;2023-10-13T05:51:15;22.88;;;7.28;;
70342;SDS011;57767;42.068;24.752;2023-10-13T05:52:35;14.02;;;8.23;;
70342;SDS011;57767;42.068;24.752;2023-10-13T05:53:55;14.18;;;8.13;;
70342;SDS011;57767;42.068;24.752;2023-10-13T05:55:16;16.77;;;8.77;;
70342;SDS011;57767;42.068;24.752;2023-10-13T05:56:36;10.90;;;7.72;;
70342;SDS011;57767;42.068;24.752;2023-10-13T05:57:56;13.65;;;7.57;;
70342;SDS011;57767;42.068;24.752;2023-10-13T05:59:16;14.73;;;7.07;;
70342;SDS011;57767;42.068;24.752;2023-10-13T06:00:39;10.27;;;6.65;;
70342;SDS011;57767;42.068;24.752;2023-10-13T06:02:00;11.75;;;6.68;;
70342;SDS011;57767;42.068;24.752;2023-10-13T06:03:20;9.50;;;6.45;;
70342;SDS011;57767;42.068;24.752;2023-10-13T06:04:40;11.15;;;6.13;;
70342;SDS011;57767;42.068;24.752;2023-10-13T06:06:01;9.95;;;6.32;;
70342;SDS011;57767;42.068;24.752;2023-10-13T06:07:21;13.48;;;5.82;;
70342;SDS011;57767;42.068;24.752;2023-10-13T06:08:41;12.50;;;6.00;;
70342;SDS011;57767;42.068;24.752;2023-10-13T06:10:01;9.73;;;5.85;;
70342;SDS011;57767;42.068;24.752;2023-10-13T06:11:21;10.70;;;5.70;;
70342;SDS011;57767;42.068;24.752;2023-10-13T06:12:41;9.23;;;5.60;;
70342;SDS011;57767;42.068;24.752;2023-10-13T06:14:01;9.40;;;5.10;;
70342;SDS011;57767;42.068;24.752;2023-10-13T06:15:20;9.05;;;5.75;;
70342;SDS011;57767;42.068;24.752;2023-10-13T06:16:40;8.60;;;5.45;;
70342;SDS011;57767;42.068;24.752;2023-10-13T06:18:00;10.43;;;4.55;;
70342;SDS011;57767;42.068;24.752;2023-10-13T06:19:21;8.30;;;4.57;;
70342;SDS011;57767;42.068;24.752;2023-10-13T06:20:41;9.57;;;5.05;;
70342;SDS011;57767;42.068;24.752;2023-10-13T06:22:01;8.93;;;4.95;;
70342;SDS011;57767;42.068;24.752;2023-10-13T06:23:20;9.77;;;5.15;;
70342;SDS011;57767;42.068;24.752;2023-10-13T06:24:40;10.80;;;4.55;;
70342;SDS011;57767;42.068;24.752;2023-10-13T06:26:00;8.10;;;4.45;;
70342;SDS011;57767;42.068;24.752;2023-10-13T06:27:21;7.90;;;4.60;;
70342;SDS011;57767;42.068;24.752;2023-10-13T06:28:41;7.32;;;5.05;;
70342;SDS011;57767;42.068;24.752;2023-10-13T06:29:43;11.15;;;4.65;;
70342;SDS011;57767;42.068;24.752;2023-10-13T06:30:57;9.40;;;5.00;;
70342;SDS011;57767;42.068;24.752;2023-10-13T06:32:00;24.65;;;5.82;;
70342;SDS011;57767;42.068;24.752;2023-10-13T06:33:03;26.42;;;5.47;;
70342;SDS011;57767;42.068;24.752;2023-10-13T06:34:05;9.65;;;4.72;;
70342;SDS011;57767;42.068;24.752;2023-10-13T06:35:07;12.77;;;5.47;;
70342;SDS011;57767;42.068;24.752;2023-10-13T06:36:09;10.18;;;4.90;;
70342;SDS011;57767;42.068;24.752;2023-10-13T06:37:11;9.48;;;4.70;;
70342;SDS011;57767;42.068;24.752;2023-10-13T06:38:32;9.82;;;4.75;;
70342;SDS011;57767;42.068;24.752;2023-10-13T06:39:39;10.43;;;4.72;;
70342;SDS011;57767;42.068;24.752;2023-10-13T06:40:44;9.63;;;5.03;;
70342;SDS011;57767;42.068;24.752;2023-10-13T06:41:50;8.52;;;4.43;;
70342;SDS011;57767;42.068;24.752;2023-10-13T06:42:53;8.25;;;4.32;;
70342;SDS011;57767;42.068;24.752;2023-10-13T06:43:56;11.30;;;4.60;;
70342;SDS011;57767;42.068;24.752;2023-10-13T06:45:01;6.43;;;4.50;;
70342;SDS011;57767;42.068;24.752;2023-10-13T06:46:17;9.20;;;4.20;;
70342;SDS011;57767;42.068;24.752;2023-10-13T06:47:25;12.88;;;5.07;;
70342;SDS011;57767;42.068;24.752;2023-10-13T06:48:29;9.48;;;5.10;;
70342;SDS011;57767;42.068;24.752;2023-10-13T06:49:34;9.60;;;4.80;;
70342;SDS011;57767;42.068;24.752;2023-10-13T06:50:41;14.38;;;5.43;;
70342;SDS011;57767;42.068;24.752;2023-10-13T06:51:49;11.90;;;4.68;;
70342;SDS011;57767;42.068;24.752;2023-10-13T06:52:51;7.70;;;4.25;;
70342;SDS011;57767;42.068;24.752;2023-10-13T06:53:56;9.93;;;4.22;;